createdAt,value
2023-03-11T00:00:39.259Z,100.00
2023-03-11T00:03:09.133Z,100.00
2023-03-11T00:05:40.531Z,100.00
2023-03-11T00:08:11.554Z,100.00
2023-03-11T00:10:41.748Z,100.00
2023-03-11T00:13:12.078Z,100.00
2023-03-11T00:15:40.515Z,100.00
2023-03-11T00:18:08.173Z,100.00
2023-03-11T00:20:39.112Z,100.00
2023-03-11T00:23:08.200Z,100.00
2023-03-11T00:25:37.523Z,100.00
2023-03-11T00:28:07.366Z,100.00
2023-03-11T00:30:35.257Z,100.00
2023-03-11T00:33:02.425Z,100.00
2023-03-11T00:35:32.587Z,100.00
2023-03-11T00:38:06.763Z,100.00
2023-03-11T00:40:36.135Z,100.00
2023-03-11T00:43:04.210Z,100.00
2023-03-11T00:45:32.186Z,100.00
2023-03-11T00:47:59.635Z,100.00
2023-03-11T00:50:31.013Z,100.00
2023-03-11T00:52:58.369Z,100.00
2023-03-11T00:55:32.816Z,100.00
2023-03-11T00:58:05.066Z,100.00
2023-03-11T01:00:39.185Z,100.00
2023-03-11T01:03:06.532Z,100.00
2023-03-11T01:05:34.515Z,100.00
2023-03-11T01:08:03.706Z,100.00
2023-03-11T01:10:33.012Z,100.00
2023-03-11T01:13:00.518Z,100.00
2023-03-11T01:15:31.749Z,100.00
2023-03-11T01:17:59.572Z,100.00
2023-03-11T01:20:27.049Z,100.00
2023-03-11T01:22:54.475Z,100.00
2023-03-11T01:25:23.723Z,100.00
2023-03-11T01:27:51.412Z,100.00
2023-03-11T01:30:22.776Z,100.00
2023-03-11T01:32:52.346Z,100.00
2023-03-11T01:35:23.153Z,100.00
2023-03-11T01:37:50.612Z,100.00
2023-03-11T01:40:29.122Z,100.00
2023-03-11T01:42:58.590Z,100.00
2023-03-11T01:45:50.249Z,100.00
2023-03-11T01:48:20.497Z,100.00
2023-03-11T01:50:50.544Z,100.00
2023-03-11T01:53:18.813Z,100.00
2023-03-11T01:55:47.783Z,100.00
2023-03-11T01:58:39.818Z,100.00
2023-03-11T02:01:07.782Z,100.00
2023-03-11T02:03:39.906Z,100.00
2023-03-11T02:06:15.205Z,100.00
2023-03-11T02:08:43.629Z,100.00
2023-03-11T02:11:27.613Z,100.00
2023-03-11T02:13:57.031Z,100.00
2023-03-11T02:16:26.096Z,100.00
2023-03-11T02:18:53.736Z,100.00
2023-03-11T02:21:30.705Z,100.00
2023-03-11T02:24:10.350Z,100.00
2023-03-11T02:26:56.792Z,100.00
2023-03-11T02:29:27.322Z,100.00
2023-03-11T02:31:57.390Z,100.00
2023-03-11T02:34:34.918Z,100.00
2023-03-11T02:37:10.035Z,100.00
2023-03-11T02:39:43.083Z,100.00
2023-03-11T02:42:14.532Z,100.00
2023-03-11T02:44:47.295Z,100.00
2023-03-11T02:47:15.590Z,100.00
2023-03-11T02:49:43.406Z,100.00
2023-03-11T02:52:12.914Z,100.00
2023-03-11T02:54:40.174Z,100.00
2023-03-11T02:57:08.188Z,100.00
2023-03-11T02:59:35.833Z,100.00
2023-03-11T03:02:03.646Z,100.00
2023-03-11T03:04:31.635Z,100.00
2023-03-11T03:07:00.089Z,100.00
2023-03-11T03:09:27.096Z,100.00
2023-03-11T03:11:54.457Z,100.00
2023-03-11T03:14:21.963Z,100.00
2023-03-11T03:16:49.905Z,100.00
2023-03-11T03:19:18.885Z,100.00
2023-03-11T03:21:45.869Z,100.00
2023-03-11T03:24:13.331Z,100.00
2023-03-11T03:26:40.258Z,100.00
2023-03-11T03:29:08.462Z,100.00
2023-03-11T03:31:35.842Z,100.00
2023-03-11T03:34:03.446Z,100.00
2023-03-11T03:36:30.730Z,100.00
2023-03-11T03:39:02.185Z,100.00
2023-03-11T03:41:33.110Z,100.00
2023-03-11T03:44:00.784Z,100.00
2023-03-11T03:46:28.624Z,100.00
2023-03-11T03:48:58.090Z,100.00
2023-03-11T03:51:26.029Z,100.00
2023-03-11T03:54:04.849Z,100.00
2023-03-11T03:56:32.291Z,100.00
2023-03-11T03:59:00.752Z,100.00
2023-03-11T04:01:34.068Z,100.00
2023-03-11T04:04:01.301Z,100.00
2023-03-11T04:06:29.403Z,100.00
2023-03-11T04:09:00.959Z,100.00
2023-03-11T04:11:32.771Z,100.00
2023-03-11T04:14:02.513Z,100.00
2023-03-11T04:16:30.655Z,100.00
2023-03-11T04:19:02.590Z,100.00
2023-03-11T04:21:30.426Z,100.00
2023-03-11T04:23:57.908Z,100.00
2023-03-11T04:26:30.010Z,100.00
2023-03-11T04:28:57.088Z,100.00
2023-03-11T04:31:26.234Z,100.00
2023-03-11T04:33:54.543Z,100.00
2023-03-11T04:36:21.685Z,100.00
2023-03-11T04:38:49.428Z,100.00
2023-03-11T04:41:17.564Z,100.00
2023-03-11T04:43:45.454Z,100.00
2023-03-11T04:46:13.001Z,100.00
2023-03-11T04:48:41.717Z,100.00
2023-03-11T04:51:09.976Z,100.00
2023-03-11T04:53:37.476Z,100.00
2023-03-11T04:56:05.074Z,100.00
2023-03-11T04:58:32.549Z,100.00
2023-03-11T05:00:59.900Z,100.00
2023-03-11T05:03:27.122Z,100.00
2023-03-11T05:05:56.818Z,100.00
2023-03-11T05:08:24.339Z,100.00
2023-03-11T05:10:53.074Z,100.00
2023-03-11T05:13:21.877Z,100.00
2023-03-11T05:15:50.353Z,100.00
2023-03-11T05:18:17.928Z,100.00
2023-03-11T05:20:46.296Z,100.00
2023-03-11T05:23:14.870Z,100.00
2023-03-11T05:25:42.143Z,100.00
2023-03-11T05:28:10.336Z,100.00
2023-03-11T05:30:42.680Z,100.00
2023-03-11T05:33:09.755Z,100.00
2023-03-11T05:35:37.430Z,100.00
2023-03-11T05:38:04.655Z,100.00
2023-03-11T05:40:32.002Z,100.00
2023-03-11T05:42:59.314Z,100.00
2023-03-11T05:45:29.389Z,100.00
2023-03-11T05:47:59.050Z,100.00
2023-03-11T05:50:26.693Z,100.00
2023-03-11T05:52:54.516Z,100.00
2023-03-11T05:55:22.878Z,100.00
2023-03-11T05:57:52.310Z,100.00
2023-03-11T06:00:20.640Z,100.00
2023-03-11T06:02:51.464Z,100.00
2023-03-11T06:05:20.057Z,100.00
2023-03-11T06:07:49.119Z,100.00
2023-03-11T06:10:16.738Z,100.00
2023-03-11T06:12:43.666Z,100.00
2023-03-11T06:15:30.889Z,100.00
2023-03-11T06:17:59.652Z,100.00
2023-03-11T06:20:28.024Z,100.00
2023-03-11T06:22:55.768Z,100.00
2023-03-11T06:25:24.359Z,100.00
2023-03-11T06:27:53.882Z,100.00
2023-03-11T06:30:24.453Z,100.00
2023-03-11T06:33:01.803Z,100.00
2023-03-11T06:35:28.889Z,100.00
2023-03-11T06:37:56.052Z,100.00
2023-03-11T06:40:23.575Z,100.00
2023-03-11T06:42:51.023Z,100.00
2023-03-11T06:45:20.816Z,100.00
2023-03-11T06:47:49.270Z,100.00
2023-03-11T06:50:17.027Z,100.00
2023-03-11T06:52:44.479Z,100.00
2023-03-11T06:55:11.554Z,100.00
2023-03-11T06:57:38.997Z,100.00
2023-03-11T07:00:13.601Z,100.00
2023-03-11T07:02:44.938Z,100.00
2023-03-11T07:05:13.606Z,100.00
2023-03-11T07:07:41.139Z,100.00
2023-03-11T07:10:08.874Z,100.00
2023-03-11T07:12:36.509Z,100.00
2023-03-11T07:15:04.117Z,100.00
2023-03-11T07:17:32.203Z,100.00
2023-03-11T07:19:59.709Z,100.00
2023-03-11T07:22:27.308Z,100.00
2023-03-11T07:24:54.672Z,100.00
2023-03-11T07:27:22.511Z,100.00
2023-03-11T07:29:49.878Z,100.00
2023-03-11T07:32:17.985Z,100.00
2023-03-11T07:34:45.125Z,100.00
2023-03-11T07:37:12.471Z,100.00
2023-03-11T07:39:40.096Z,100.00
2023-03-11T07:42:07.615Z,100.00
2023-03-11T07:44:36.199Z,100.00
2023-03-11T07:47:05.728Z,100.00
2023-03-11T07:49:33.647Z,100.00
2023-03-11T07:52:01.000Z,100.00
2023-03-11T07:54:28.438Z,100.00
2023-03-11T07:56:55.952Z,100.00
2023-03-11T07:59:23.136Z,100.00
2023-03-11T08:01:50.727Z,100.00
2023-03-11T08:04:18.370Z,100.00
2023-03-11T08:06:47.480Z,100.00
2023-03-11T08:09:15.191Z,100.00
2023-03-11T08:11:42.785Z,100.00
2023-03-11T08:14:10.305Z,100.00
2023-03-11T08:16:38.998Z,100.00
2023-03-11T08:19:06.359Z,100.00
2023-03-11T08:21:33.777Z,100.00
2023-03-11T08:24:02.666Z,100.00
2023-03-11T08:26:31.416Z,100.00
2023-03-11T08:28:59.573Z,100.00
2023-03-11T08:31:30.562Z,100.00
2023-03-11T08:34:02.539Z,100.00
2023-03-11T08:36:30.195Z,100.00
2023-03-11T08:38:57.302Z,100.00
2023-03-11T08:41:25.055Z,100.00
2023-03-11T08:43:52.655Z,100.00
2023-03-11T08:46:32.455Z,100.00
2023-03-11T08:49:01.479Z,100.00
2023-03-11T08:51:30.754Z,100.00
2023-03-11T08:53:58.750Z,100.00
2023-03-11T08:56:26.426Z,100.00
2023-03-11T08:58:53.928Z,100.00
2023-03-11T09:01:21.051Z,100.00
2023-03-11T09:03:48.199Z,100.00
2023-03-11T09:06:17.644Z,100.00
2023-03-11T09:08:46.419Z,100.00
2023-03-11T09:11:16.676Z,100.00
2023-03-11T09:13:44.964Z,100.00
2023-03-11T09:16:19.382Z,100.00
2023-03-11T09:18:47.137Z,100.00
2023-03-11T09:21:14.306Z,100.00
2023-03-11T09:23:44.153Z,100.00
2023-03-11T09:26:12.478Z,100.00
2023-03-11T09:28:41.174Z,100.00
2023-03-11T09:31:08.586Z,100.00
2023-03-11T09:33:40.848Z,100.00
2023-03-11T09:36:15.417Z,100.00
2023-03-11T09:38:43.493Z,100.00
2023-03-11T09:41:26.833Z,100.00
2023-03-11T09:44:39.135Z,100.00
2023-03-11T09:47:57.100Z,100.00
2023-03-11T09:51:08.310Z,100.00
2023-03-11T09:53:44.609Z,100.00
2023-03-11T09:56:18.502Z,100.00
2023-03-11T09:58:53.026Z,100.00
2023-03-11T10:01:31.448Z,100.00
2023-03-11T10:04:40.094Z,100.00
2023-03-11T10:07:21.622Z,100.00
2023-03-11T10:09:56.689Z,100.00
2023-03-11T10:13:01.115Z,100.00
2023-03-11T10:15:59.455Z,100.00
2023-03-11T10:18:29.710Z,100.00
2023-03-11T10:21:36.145Z,100.00
2023-03-11T10:24:43.703Z,100.00
2023-03-11T10:27:22.847Z,100.00
2023-03-11T10:30:21.793Z,100.00
2023-03-11T10:32:59.514Z,100.00
2023-03-11T10:35:50.171Z,100.00
2023-03-11T10:38:29.856Z,100.00
2023-03-11T10:41:04.050Z,100.00
2023-03-11T10:43:41.908Z,100.00
2023-03-11T10:46:21.232Z,100.00
2023-03-11T10:48:49.007Z,100.00
2023-03-11T10:51:22.963Z,100.00
2023-03-11T10:53:56.747Z,100.00
2023-03-11T10:56:42.200Z,100.00
2023-03-11T10:59:47.506Z,100.00
2023-03-11T11:02:26.835Z,100.00
2023-03-11T11:05:23.051Z,100.00
2023-03-11T11:07:55.105Z,100.00
2023-03-11T11:10:25.458Z,100.00
2023-03-11T11:13:17.640Z,100.00
2023-03-11T11:16:18.924Z,90.56
2023-03-11T11:19:05.467Z,100.00
2023-03-11T11:21:37.292Z,100.00
2023-03-11T11:24:08.609Z,100.00
2023-03-11T11:26:36.014Z,100.00
2023-03-11T11:29:13.065Z,100.00
2023-03-11T11:31:46.220Z,100.00
2023-03-11T11:34:30.085Z,100.00
2023-03-11T11:36:59.872Z,100.00
2023-03-11T11:39:30.976Z,100.00
2023-03-11T11:41:59.186Z,93.64
2023-03-11T11:44:33.511Z,84.69
2023-03-11T11:47:19.214Z,100.00
2023-03-11T11:50:11.358Z,80.11
2023-03-11T11:52:45.239Z,74.24
2023-03-11T11:55:27.231Z,74.22
2023-03-11T11:57:54.711Z,74.11
2023-03-11T12:00:25.276Z,100.00
2023-03-11T12:03:13.786Z,100.00
2023-03-11T12:06:07.566Z,98.35
2023-03-11T12:08:51.127Z,100.00
2023-03-11T12:11:51.715Z,74.62
2023-03-11T12:14:23.028Z,72.02
2023-03-11T12:16:58.438Z,93.35
2023-03-11T12:19:47.001Z,62.37
2023-03-11T12:22:44.288Z,65.90
2023-03-11T12:25:43.480Z,58.70
2023-03-11T12:28:24.819Z,69.08
2023-03-11T12:30:58.359Z,100.00
2023-03-11T12:33:35.172Z,100.00
2023-03-11T12:36:03.627Z,100.00
2023-03-11T12:38:38.933Z,100.00
2023-03-11T12:41:31.838Z,100.00
2023-03-11T12:44:05.506Z,78.02
2023-03-11T12:46:54.768Z,67.57
2023-03-11T12:49:33.400Z,54.21
2023-03-11T12:52:12.537Z,54.83
2023-03-11T12:54:44.168Z,56.86
2023-03-11T12:57:17.444Z,58.34
2023-03-11T13:00:32.777Z,56.20
2023-03-11T13:03:27.253Z,53.11
2023-03-11T13:06:41.208Z,45.46
2023-03-11T13:09:16.013Z,46.65
2023-03-11T13:11:48.409Z,51.71
2023-03-11T13:14:18.491Z,49.56
2023-03-11T13:16:46.461Z,66.61
2023-03-11T13:19:35.594Z,59.34
2023-03-11T13:22:04.812Z,54.56
2023-03-11T13:24:32.101Z,51.28
2023-03-11T13:26:59.649Z,48.13
2023-03-11T13:30:02.118Z,44.83
2023-03-11T13:32:57.330Z,49.34
2023-03-11T13:36:00.388Z,45.45
2023-03-11T13:39:03.848Z,47.17
2023-03-11T13:41:35.742Z,51.78
2023-03-11T13:44:29.125Z,44.76
2023-03-11T13:47:05.864Z,38.97
2023-03-11T13:49:41.303Z,38.30
2023-03-11T13:52:16.442Z,38.75
2023-03-11T13:55:21.813Z,41.19
2023-03-11T13:57:54.999Z,44.91
2023-03-11T14:00:25.733Z,44.72
2023-03-11T14:03:05.229Z,43.72
2023-03-11T14:05:37.458Z,39.82
2023-03-11T14:08:27.438Z,39.77
2023-03-11T14:11:01.245Z,39.76
2023-03-11T14:13:32.804Z,45.62
2023-03-11T14:16:09.915Z,50.95
2023-03-11T14:18:49.697Z,59.32
2023-03-11T14:21:22.594Z,66.56
2023-03-11T14:23:54.140Z,73.85
2023-03-11T14:26:31.381Z,85.03
2023-03-11T14:29:02.468Z,84.35
2023-03-11T14:31:36.844Z,81.59
2023-03-11T14:34:15.115Z,79.22
2023-03-11T14:36:52.416Z,83.63
2023-03-11T14:39:34.725Z,89.92
2023-03-11T14:42:29.448Z,100.00
2023-03-11T14:45:08.210Z,100.00
2023-03-11T14:47:43.850Z,98.47
2023-03-11T14:50:26.231Z,99.83
2023-03-11T14:52:58.815Z,91.54
2023-03-11T14:55:30.324Z,100.00
2023-03-11T14:58:07.081Z,100.00
2023-03-11T15:00:37.346Z,100.00
2023-03-11T15:03:27.042Z,100.00
2023-03-11T15:06:04.062Z,100.00
2023-03-11T15:08:38.192Z,100.00
2023-03-11T15:11:11.451Z,100.00
2023-03-11T15:13:42.144Z,100.00
2023-03-11T15:16:33.404Z,100.00
2023-03-11T15:19:20.936Z,100.00
2023-03-11T15:21:50.721Z,100.00
2023-03-11T15:24:27.530Z,100.00
2023-03-11T15:27:08.352Z,100.00
2023-03-11T15:29:36.391Z,100.00
2023-03-11T15:32:31.329Z,100.00
2023-03-11T15:35:11.154Z,100.00
2023-03-11T15:37:40.466Z,100.00
2023-03-11T15:40:43.936Z,100.00
2023-03-11T15:43:15.079Z,100.00
2023-03-11T15:45:43.350Z,100.00
2023-03-11T15:48:11.776Z,100.00
2023-03-11T15:50:55.173Z,100.00
2023-03-11T15:53:25.091Z,100.00
2023-03-11T15:56:07.323Z,100.00
2023-03-11T15:58:37.735Z,100.00
2023-03-11T16:01:04.809Z,100.00
2023-03-11T16:03:32.277Z,100.00
2023-03-11T16:05:59.984Z,100.00
2023-03-11T16:08:26.960Z,100.00
2023-03-11T16:10:54.032Z,100.00
2023-03-11T16:13:21.404Z,100.00
2023-03-11T16:15:48.505Z,100.00
2023-03-11T16:18:15.843Z,100.00
2023-03-11T16:20:46.830Z,100.00
2023-03-11T16:23:34.077Z,100.00
2023-03-11T16:26:11.830Z,100.00
2023-03-11T16:28:39.403Z,100.00
2023-03-11T16:31:09.484Z,100.00
2023-03-11T16:33:37.321Z,100.00
2023-03-11T16:36:05.508Z,100.00
2023-03-11T16:38:44.351Z,100.00
2023-03-11T16:41:11.746Z,100.00
2023-03-11T16:43:39.142Z,100.00
2023-03-11T16:46:06.629Z,100.00
2023-03-11T16:48:34.664Z,100.00
2023-03-11T16:51:02.233Z,100.00
2023-03-11T16:53:29.371Z,100.00
2023-03-11T16:55:56.701Z,100.00
2023-03-11T16:58:24.121Z,100.00
2023-03-11T17:00:51.557Z,100.00
2023-03-11T17:03:21.877Z,100.00
2023-03-11T17:05:49.738Z,100.00
2023-03-11T17:08:18.287Z,100.00
2023-03-11T17:10:46.082Z,100.00
2023-03-11T17:13:14.600Z,100.00
2023-03-11T17:15:44.407Z,100.00
2023-03-11T17:18:12.517Z,100.00
2023-03-11T17:20:43.654Z,100.00
2023-03-11T17:23:10.957Z,100.00
2023-03-11T17:25:41.725Z,100.00
2023-03-11T17:28:09.518Z,100.00
2023-03-11T17:30:41.144Z,100.00
2023-03-11T17:33:08.176Z,100.00
2023-03-11T17:35:35.564Z,100.00
2023-03-11T17:38:03.216Z,100.00
2023-03-11T17:40:31.797Z,100.00
2023-03-11T17:42:59.250Z,100.00
2023-03-11T17:45:26.345Z,100.00
2023-03-11T17:47:53.308Z,100.00
2023-03-11T17:50:20.356Z,100.00
2023-03-11T17:52:48.285Z,100.00
2023-03-11T17:55:15.630Z,100.00
2023-03-11T17:57:45.866Z,100.00
2023-03-11T18:00:14.952Z,100.00
2023-03-11T18:02:42.509Z,100.00
2023-03-11T18:05:10.099Z,100.00
2023-03-11T18:07:40.845Z,100.00
2023-03-11T18:10:10.221Z,100.00
2023-03-11T18:12:38.231Z,100.00
2023-03-11T18:15:14.239Z,100.00
2023-03-11T18:17:41.435Z,100.00
2023-03-11T18:20:09.230Z,100.00
2023-03-11T18:22:38.613Z,100.00
2023-03-11T18:25:09.871Z,100.00
2023-03-11T18:27:40.123Z,100.00
2023-03-11T18:30:08.681Z,100.00
2023-03-11T18:32:35.928Z,100.00
2023-03-11T18:35:03.188Z,100.00
2023-03-11T18:37:31.963Z,100.00
2023-03-11T18:39:59.006Z,100.00
2023-03-11T18:42:26.326Z,100.00
2023-03-11T18:44:53.440Z,100.00
2023-03-11T18:47:20.768Z,100.00
2023-03-11T18:49:48.148Z,100.00
2023-03-11T18:52:15.286Z,100.00
2023-03-11T18:54:42.804Z,100.00
2023-03-11T18:57:10.329Z,100.00
2023-03-11T18:59:37.661Z,100.00
2023-03-11T19:02:04.632Z,100.00
2023-03-11T19:04:32.984Z,100.00
2023-03-11T19:06:59.974Z,100.00
2023-03-11T19:09:26.967Z,100.00
2023-03-11T19:11:53.955Z,100.00
2023-03-11T19:14:20.925Z,100.00
2023-03-11T19:16:48.232Z,100.00
2023-03-11T19:19:15.836Z,100.00
2023-03-11T19:21:43.745Z,100.00
2023-03-11T19:24:10.916Z,100.00
2023-03-11T19:26:45.191Z,100.00
2023-03-11T19:29:14.116Z,100.00
2023-03-11T19:31:43.328Z,100.00
2023-03-11T19:34:10.839Z,100.00
2023-03-11T19:36:39.212Z,100.00
2023-03-11T19:39:06.625Z,100.00
2023-03-11T19:41:34.118Z,100.00
2023-03-11T19:44:03.921Z,100.00
2023-03-11T19:46:34.408Z,100.00
2023-03-11T19:49:02.561Z,100.00
2023-03-11T19:51:38.886Z,100.00
2023-03-11T19:54:16.096Z,100.00
2023-03-11T19:56:43.724Z,100.00
2023-03-11T19:59:10.779Z,100.00
2023-03-11T20:01:37.974Z,100.00
2023-03-11T20:04:06.444Z,100.00
2023-03-11T20:06:34.219Z,100.00
2023-03-11T20:09:01.442Z,100.00
2023-03-11T20:11:28.395Z,100.00
2023-03-11T20:13:56.595Z,100.00
2023-03-11T20:16:23.662Z,100.00
2023-03-11T20:18:51.754Z,100.00
2023-03-11T20:21:19.731Z,100.00
2023-03-11T20:23:48.788Z,100.00
2023-03-11T20:26:18.980Z,100.00
2023-03-11T20:28:46.227Z,100.00
2023-03-11T20:31:20.994Z,100.00
2023-03-11T20:33:50.500Z,100.00
2023-03-11T20:36:21.184Z,100.00
2023-03-11T20:38:50.229Z,100.00
2023-03-11T20:41:18.374Z,100.00
2023-03-11T20:43:45.927Z,100.00
2023-03-11T20:46:13.614Z,100.00
2023-03-11T20:48:41.237Z,100.00
2023-03-11T20:51:20.540Z,100.00
2023-03-11T20:53:49.002Z,100.00
2023-03-11T20:56:20.959Z,100.00
2023-03-11T20:58:50.941Z,100.00
2023-03-11T21:01:23.016Z,100.00
2023-03-11T21:03:53.804Z,100.00
2023-03-11T21:06:24.733Z,100.00
2023-03-11T21:08:54.680Z,100.00
2023-03-11T21:11:22.918Z,100.00
2023-03-11T21:13:50.719Z,100.00
2023-03-11T21:16:18.227Z,100.00
2023-03-11T21:18:48.675Z,100.00
2023-03-11T21:21:18.582Z,100.00
2023-03-11T21:23:46.951Z,100.00
2023-03-11T21:26:16.007Z,100.00
2023-03-11T21:28:47.231Z,100.00
2023-03-11T21:31:27.852Z,100.00
2023-03-11T21:33:58.636Z,100.00
2023-03-11T21:36:26.419Z,100.00
2023-03-11T21:38:54.006Z,100.00
2023-03-11T21:41:25.256Z,100.00
2023-03-11T21:43:56.908Z,100.00
2023-03-11T21:46:31.270Z,100.00
2023-03-11T21:48:59.943Z,100.00
2023-03-11T21:51:27.943Z,100.00
2023-03-11T21:53:54.998Z,100.00
2023-03-11T21:56:22.655Z,100.00
2023-03-11T21:58:50.271Z,100.00
2023-03-11T22:01:17.382Z,100.00
2023-03-11T22:03:44.742Z,100.00
2023-03-11T22:06:13.065Z,100.00
2023-03-11T22:08:42.426Z,100.00
2023-03-11T22:11:17.404Z,100.00
2023-03-11T22:13:50.927Z,100.00
2023-03-11T22:16:19.045Z,100.00
2023-03-11T22:18:46.878Z,100.00
2023-03-11T22:21:15.926Z,100.00
2023-03-11T22:23:44.580Z,100.00
2023-03-11T22:26:11.954Z,100.00
2023-03-11T22:28:39.729Z,100.00
2023-03-11T22:31:13.038Z,100.00
2023-03-11T22:33:40.688Z,100.00
2023-03-11T22:36:09.372Z,100.00
2023-03-11T22:38:37.071Z,100.00
2023-03-11T22:41:07.455Z,100.00
2023-03-11T22:43:35.837Z,100.00
2023-03-11T22:46:04.602Z,100.00
2023-03-11T22:48:32.982Z,100.00
2023-03-11T22:51:00.395Z,100.00
2023-03-11T22:53:27.489Z,100.00
2023-03-11T22:55:54.437Z,100.00
2023-03-11T22:58:21.596Z,100.00
2023-03-11T23:00:48.751Z,100.00
2023-03-11T23:03:16.000Z,100.00
2023-03-11T23:05:43.322Z,100.00
2023-03-11T23:08:15.089Z,100.00
2023-03-11T23:10:47.392Z,100.00
2023-03-11T23:13:14.624Z,100.00
2023-03-11T23:15:46.549Z,100.00
2023-03-11T23:18:15.898Z,100.00
2023-03-11T23:20:43.834Z,100.00
2023-03-11T23:23:12.374Z,100.00
2023-03-11T23:25:41.065Z,100.00
2023-03-11T23:28:08.594Z,100.00
2023-03-11T23:30:36.153Z,100.00
2023-03-11T23:33:03.608Z,100.00
2023-03-11T23:35:32.178Z,100.00
2023-03-11T23:38:00.034Z,100.00
2023-03-11T23:40:27.120Z,100.00
2023-03-11T23:42:54.519Z,100.00
2023-03-11T23:45:21.927Z,100.00
2023-03-11T23:47:49.312Z,100.00
2023-03-11T23:50:16.852Z,100.00
2023-03-11T23:52:44.423Z,100.00
2023-03-11T23:55:12.068Z,100.00
2023-03-11T23:57:39.255Z,100.00
